createdAt,value
2022-10-01T00:01:19.312Z,77751.31
2022-10-01T00:02:54.860Z,77747.34
2022-10-01T00:04:28.645Z,77745.38
2022-10-01T00:06:15.560Z,77747.34
2022-10-01T00:07:49.351Z,77741.44
2022-10-01T00:09:23.264Z,77735.50
2022-10-01T00:10:57.173Z,77735.50
2022-10-01T00:12:30.819Z,77755.28
2022-10-01T00:14:04.258Z,77745.38
2022-10-01T00:15:42.070Z,77731.53
2022-10-01T00:17:16.760Z,77741.44
2022-10-01T00:18:51.025Z,77814.59
2022-10-01T00:20:24.587Z,77739.44
2022-10-01T00:21:58.284Z,77741.44
2022-10-01T00:23:31.506Z,77739.44
2022-10-01T00:25:06.530Z,77737.47
2022-10-01T00:26:40.126Z,77727.59
2022-10-01T00:28:14.518Z,77759.22
2022-10-01T00:29:48.065Z,77733.50
2022-10-01T00:31:21.829Z,77727.59
2022-10-01T00:32:56.120Z,77739.44
2022-10-01T00:34:29.489Z,77733.50
2022-10-01T00:36:07.753Z,77733.50
2022-10-01T00:37:43.162Z,77729.56
2022-10-01T00:39:17.088Z,77733.50
2022-10-01T00:40:51.728Z,77727.59
2022-10-01T00:42:30.493Z,77729.56
2022-10-01T00:44:29.033Z,77725.59
2022-10-01T00:46:11.724Z,77719.66
2022-10-01T00:47:59.580Z,77719.66
2022-10-01T00:49:36.113Z,77717.69
2022-10-01T00:51:13.333Z,77715.72
2022-10-01T00:52:52.581Z,77709.78
2022-10-01T00:54:32.531Z,77719.66
2022-10-01T00:56:07.584Z,77709.78
2022-10-01T00:57:43.096Z,77713.72
2022-10-01T00:59:17.259Z,77709.78
2022-10-01T01:00:51.984Z,77715.72
2022-10-01T01:02:25.851Z,77741.44
2022-10-01T01:03:59.920Z,77707.81
2022-10-01T01:05:33.693Z,77707.81
2022-10-01T01:07:09.049Z,77703.84
2022-10-01T01:08:43.636Z,77703.84
2022-10-01T01:10:23.229Z,77703.84
2022-10-01T01:12:06.570Z,77699.88
2022-10-01T01:13:42.730Z,77709.78
2022-10-01T01:15:25.770Z,77703.84
2022-10-01T01:17:08.819Z,77699.88
2022-10-01T01:18:48.381Z,77701.88
2022-10-01T01:20:44.607Z,77703.84
2022-10-01T01:22:22.521Z,77705.81
2022-10-01T01:24:24.721Z,77701.88
2022-10-01T01:26:19.461Z,77709.78
2022-10-01T01:28:17.340Z,77739.44
2022-10-01T01:30:04.118Z,77697.91
2022-10-01T01:31:47.165Z,77699.88
2022-10-01T01:33:25.120Z,77703.84
2022-10-01T01:35:04.762Z,77719.66
2022-10-01T01:36:41.060Z,77695.94
2022-10-01T01:38:20.191Z,77703.84
2022-10-01T01:39:56.813Z,77699.88
2022-10-01T01:41:35.957Z,77727.59
2022-10-01T01:43:18.021Z,77699.88
2022-10-01T01:44:54.849Z,77695.94
2022-10-01T01:46:33.599Z,77699.88
2022-10-01T01:48:10.296Z,77693.97
2022-10-01T01:49:44.502Z,77727.59
2022-10-01T01:51:26.475Z,77693.97
2022-10-01T01:53:00.192Z,77695.94
2022-10-01T01:54:37.042Z,77695.94
2022-10-01T01:56:10.225Z,77697.91
2022-10-01T01:57:45.252Z,77697.91
2022-10-01T01:59:20.126Z,77735.50
2022-10-01T02:00:53.306Z,77693.97
2022-10-01T02:02:36.273Z,77688.03
2022-10-01T02:04:33.813Z,77691.97
2022-10-01T02:06:28.644Z,77682.09
2022-10-01T02:08:19.960Z,77684.06
2022-10-01T02:10:29.821Z,77680.09
2022-10-01T02:12:20.237Z,77678.13
2022-10-01T02:14:29.085Z,77680.09
2022-10-01T02:16:23.036Z,77678.13
2022-10-01T02:18:23.294Z,77674.19
2022-10-01T02:20:00.669Z,77680.09
2022-10-01T02:21:37.681Z,77678.13
2022-10-01T02:23:16.564Z,77680.09
2022-10-01T02:24:57.564Z,77709.78
2022-10-01T02:26:32.780Z,77688.03
2022-10-01T02:28:11.412Z,77680.09
2022-10-01T02:29:47.016Z,77680.09
2022-10-01T02:31:23.180Z,77676.16
2022-10-01T02:32:59.661Z,77672.19
2022-10-01T02:34:34.045Z,77676.16
2022-10-01T02:36:10.508Z,77670.22
2022-10-01T02:37:46.398Z,77672.19
2022-10-01T02:39:22.403Z,77668.25
2022-10-01T02:41:01.468Z,77672.19
2022-10-01T02:42:36.953Z,77664.28
2022-10-01T02:44:23.276Z,77664.28
2022-10-01T02:46:00.863Z,77660.34
2022-10-01T02:47:37.411Z,77666.25
2022-10-01T02:49:13.657Z,77662.31
2022-10-01T02:50:54.138Z,77658.34
2022-10-01T02:52:40.335Z,77656.38
2022-10-01T02:54:27.355Z,77656.38
2022-10-01T02:56:03.756Z,77656.38
2022-10-01T02:57:38.208Z,77658.34
2022-10-01T02:59:11.452Z,77660.34
2022-10-01T03:00:44.892Z,77658.34
2022-10-01T03:02:20.243Z,77660.34
2022-10-01T03:03:54.468Z,77656.38
2022-10-01T03:05:27.871Z,77660.34
2022-10-01T03:07:04.284Z,77648.47
2022-10-01T03:08:40.892Z,77656.38
2022-10-01T03:10:16.622Z,77652.41
2022-10-01T03:11:50.399Z,77648.47
2022-10-01T03:13:23.801Z,77648.47
2022-10-01T03:15:00.548Z,77648.47
2022-10-01T03:16:34.102Z,77648.47
2022-10-01T03:18:07.627Z,77654.41
2022-10-01T03:19:41.485Z,77652.41
2022-10-01T03:21:15.426Z,77654.41
2022-10-01T03:22:49.011Z,77648.47
2022-10-01T03:24:23.343Z,77644.50
2022-10-01T03:25:56.488Z,77644.50
2022-10-01T03:27:29.700Z,77640.56
2022-10-01T03:29:03.667Z,77636.59
2022-10-01T03:30:37.271Z,77636.59
2022-10-01T03:32:11.134Z,77628.69
2022-10-01T03:33:45.032Z,77630.66
2022-10-01T03:35:18.437Z,77636.59
2022-10-01T03:36:54.982Z,77638.56
2022-10-01T03:38:28.215Z,77630.66
2022-10-01T03:40:01.895Z,77628.69
2022-10-01T03:41:35.546Z,77620.78
2022-10-01T03:43:09.359Z,77628.69
2022-10-01T03:44:42.968Z,77624.72
2022-10-01T03:46:16.567Z,77626.72
2022-10-01T03:47:53.917Z,77624.72
2022-10-01T03:49:27.756Z,77624.72
2022-10-01T03:51:01.287Z,77699.88
2022-10-01T03:52:34.727Z,77620.78
2022-10-01T03:54:09.357Z,77620.78
2022-10-01T03:55:42.816Z,77630.66
2022-10-01T03:57:16.443Z,77618.78
2022-10-01T03:58:50.370Z,77622.75
2022-10-01T04:00:24.416Z,77620.78
2022-10-01T04:01:58.378Z,77620.78
2022-10-01T04:03:32.037Z,77620.78
2022-10-01T04:05:05.935Z,77622.75
2022-10-01T04:06:39.773Z,77622.75
2022-10-01T04:08:18.766Z,77618.78
2022-10-01T04:09:54.565Z,77608.91
2022-10-01T04:11:28.539Z,77616.81
2022-10-01T04:13:02.437Z,77610.88
2022-10-01T04:14:35.812Z,77604.94
2022-10-01T04:16:09.059Z,77608.91
2022-10-01T04:17:45.849Z,77601.00
2022-10-01T04:19:20.665Z,77597.03
2022-10-01T04:20:54.246Z,77597.03
2022-10-01T04:22:27.696Z,77604.94
2022-10-01T04:24:03.386Z,77593.09
2022-10-01T04:25:37.397Z,77581.22
2022-10-01T04:27:10.977Z,77575.28
2022-10-01T04:28:46.706Z,77571.31
2022-10-01T04:30:20.086Z,77569.34
2022-10-01T04:31:53.972Z,77559.47
2022-10-01T04:33:30.714Z,77569.34
2022-10-01T04:35:05.121Z,77561.44
2022-10-01T04:36:41.267Z,77583.19
2022-10-01T04:38:17.569Z,77547.59
2022-10-01T04:39:51.353Z,77549.56
2022-10-01T04:41:26.008Z,77539.69
2022-10-01T04:42:59.550Z,77535.72
2022-10-01T04:44:33.436Z,77519.91
2022-10-01T04:46:07.695Z,77521.88
2022-10-01T04:47:48.745Z,77508.03
2022-10-01T04:49:22.043Z,77506.06
2022-10-01T04:50:55.557Z,77502.09
2022-10-01T04:52:29.563Z,77482.31
2022-10-01T04:54:03.182Z,77462.53
2022-10-01T04:55:36.318Z,77460.56
2022-10-01T04:57:09.842Z,77436.84
2022-10-01T04:58:43.343Z,77423.00
2022-10-01T05:00:22.175Z,77395.28
2022-10-01T05:01:55.543Z,77359.69
2022-10-01T05:03:28.935Z,77349.81
2022-10-01T05:05:04.595Z,77363.66
2022-10-01T05:06:38.219Z,77343.88
2022-10-01T05:08:11.508Z,77324.09
2022-10-01T05:09:45.039Z,77312.22
2022-10-01T05:11:19.597Z,77322.13
2022-10-01T05:12:53.075Z,77324.09
2022-10-01T05:14:27.198Z,77349.81
2022-10-01T05:16:02.625Z,77343.88
2022-10-01T05:17:37.310Z,77349.81
2022-10-01T05:19:10.293Z,77359.69
2022-10-01T05:20:44.363Z,77373.53
2022-10-01T05:22:17.567Z,77290.47
2022-10-01T05:23:50.858Z,77298.38
2022-10-01T05:25:24.425Z,77318.16
2022-10-01T05:26:58.213Z,77316.19
2022-10-01T05:28:32.285Z,77300.38
2022-10-01T05:30:06.295Z,77316.19
2022-10-01T05:31:44.718Z,77308.28
2022-10-01T05:33:17.784Z,77320.13
2022-10-01T05:34:53.579Z,77320.13
2022-10-01T05:36:39.936Z,77308.28
2022-10-01T05:38:13.331Z,77320.13
2022-10-01T05:39:46.164Z,77330.03
2022-10-01T05:41:20.612Z,77355.75
2022-10-01T05:42:58.866Z,77343.88
2022-10-01T05:44:46.479Z,77343.88
2022-10-01T05:46:21.093Z,77332.00
2022-10-01T05:48:06.102Z,77280.59
2022-10-01T05:49:42.805Z,77268.72
2022-10-01T05:51:16.758Z,77248.94
2022-10-01T05:52:56.617Z,77264.75
2022-10-01T05:54:30.127Z,77266.75
2022-10-01T05:56:03.521Z,77288.50
2022-10-01T05:57:36.948Z,77250.91
2022-10-01T05:59:14.355Z,77252.91
2022-10-01T06:00:48.643Z,77252.91
2022-10-01T06:02:21.923Z,77292.44
2022-10-01T06:03:55.722Z,77276.63
2022-10-01T06:05:37.008Z,77270.69
2022-10-01T06:07:13.704Z,77270.69
2022-10-01T06:08:49.971Z,77264.75
2022-10-01T06:10:24.196Z,77280.59
2022-10-01T06:11:57.972Z,77316.19
2022-10-01T06:13:32.860Z,77270.69
2022-10-01T06:15:06.425Z,77256.84
2022-10-01T06:16:39.958Z,77225.22
2022-10-01T06:18:15.312Z,77209.38
2022-10-01T06:19:52.134Z,77209.38
2022-10-01T06:21:26.433Z,77209.38
2022-10-01T06:22:59.756Z,77225.22
2022-10-01T06:24:33.571Z,77219.28
2022-10-01T06:26:07.467Z,77209.38
2022-10-01T06:27:40.991Z,77185.66
2022-10-01T06:29:14.430Z,77165.88
2022-10-01T06:30:47.982Z,77169.84
2022-10-01T06:32:21.590Z,77183.69
2022-10-01T06:33:55.152Z,77165.88
2022-10-01T06:35:28.123Z,77167.84
2022-10-01T06:37:01.352Z,77157.97
2022-10-01T06:38:34.724Z,77122.38
2022-10-01T06:40:08.446Z,77110.50
2022-10-01T06:41:44.087Z,77102.59
2022-10-01T06:43:22.546Z,77100.63
2022-10-01T06:44:56.237Z,77130.28
2022-10-01T06:46:29.257Z,77094.69
2022-10-01T06:48:05.596Z,77110.50
2022-10-01T06:49:38.995Z,77114.47
2022-10-01T06:51:12.607Z,77112.47
2022-10-01T06:52:51.720Z,77104.56
2022-10-01T06:54:27.679Z,77130.28
2022-10-01T06:56:07.394Z,77138.19
2022-10-01T06:57:40.819Z,77157.97
2022-10-01T06:59:13.954Z,77146.09
2022-10-01T07:00:48.828Z,77159.94
2022-10-01T07:02:31.101Z,77138.19
2022-10-01T07:04:04.636Z,77146.09
2022-10-01T07:05:39.428Z,77215.31
2022-10-01T07:07:12.664Z,77175.78
2022-10-01T07:08:50.668Z,77185.66
2022-10-01T07:10:24.087Z,77181.69
2022-10-01T07:11:57.577Z,77181.69
2022-10-01T07:13:31.083Z,77179.72
2022-10-01T07:15:06.200Z,77175.78
2022-10-01T07:16:40.022Z,77169.84
2022-10-01T07:18:13.878Z,77169.84
2022-10-01T07:19:46.983Z,77157.97
2022-10-01T07:21:20.430Z,77146.09
2022-10-01T07:23:01.110Z,77146.09
2022-10-01T07:24:35.769Z,77138.19
2022-10-01T07:26:09.550Z,77144.13
2022-10-01T07:27:42.834Z,77122.38
2022-10-01T07:29:15.987Z,77142.16
2022-10-01T07:31:02.873Z,77138.19
2022-10-01T07:32:36.868Z,77138.19
2022-10-01T07:34:10.025Z,77110.50
2022-10-01T07:35:43.514Z,77100.63
2022-10-01T07:37:16.992Z,77092.72
2022-10-01T07:38:51.474Z,77078.88
2022-10-01T07:40:25.187Z,77086.78
2022-10-01T07:41:59.478Z,77070.94
2022-10-01T07:43:34.996Z,77047.22
2022-10-01T07:45:09.382Z,77057.09
2022-10-01T07:46:42.756Z,77051.19
2022-10-01T07:48:16.707Z,77023.50
2022-10-01T07:49:50.131Z,77047.22
2022-10-01T07:51:24.884Z,77039.31
2022-10-01T07:52:59.595Z,77072.94
2022-10-01T07:54:32.994Z,77001.72
2022-10-01T07:56:06.458Z,76995.81
2022-10-01T07:57:40.070Z,76989.88
2022-10-01T07:59:13.506Z,77019.53
2022-10-01T08:00:46.957Z,76989.88
2022-10-01T08:02:20.221Z,76983.94
2022-10-01T08:03:53.758Z,76991.84
2022-10-01T08:05:30.402Z,76960.22
2022-10-01T08:07:08.786Z,76972.06
2022-10-01T08:08:42.650Z,76964.16
2022-10-01T08:10:18.071Z,76964.16
2022-10-01T08:11:51.520Z,76987.88
2022-10-01T08:13:30.256Z,77007.66
2022-10-01T08:15:03.856Z,77015.56
2022-10-01T08:16:39.904Z,76995.81
2022-10-01T08:18:14.041Z,76989.88
2022-10-01T08:19:47.577Z,76976.03
2022-10-01T08:21:21.611Z,76983.94
2022-10-01T08:22:54.830Z,76964.16
2022-10-01T08:24:28.273Z,76956.25
2022-10-01T08:26:07.985Z,76964.16
2022-10-01T08:27:41.382Z,76985.91
2022-10-01T08:29:17.053Z,76981.97
2022-10-01T08:30:50.468Z,76970.09
2022-10-01T08:32:25.362Z,76972.06
2022-10-01T08:33:58.452Z,76952.28
2022-10-01T08:35:32.333Z,76904.84
2022-10-01T08:37:05.766Z,76881.09
2022-10-01T08:38:40.641Z,76889.00
2022-10-01T08:40:15.232Z,76807.94
2022-10-01T08:42:06.111Z,76790.13
2022-10-01T08:43:41.541Z,76790.13
2022-10-01T08:45:20.760Z,76790.13
2022-10-01T08:47:01.155Z,76794.09
2022-10-01T08:48:57.110Z,76766.41
2022-10-01T08:50:39.265Z,76732.78
2022-10-01T08:52:31.160Z,76750.59
2022-10-01T08:54:29.408Z,76726.84
2022-10-01T08:56:04.595Z,76695.22
2022-10-01T08:57:48.364Z,76720.94
2022-10-01T08:59:47.502Z,76798.03
2022-10-01T09:01:21.752Z,76792.13
2022-10-01T09:02:58.458Z,76770.38
2022-10-01T09:04:33.692Z,76807.94
2022-10-01T09:06:26.710Z,76831.66
2022-10-01T09:08:44.771Z,76805.97
2022-10-01T09:10:25.314Z,76845.50
2022-10-01T09:12:15.140Z,76849.47
2022-10-01T09:14:04.687Z,76817.81
2022-10-01T09:16:15.335Z,76845.50
2022-10-01T09:18:11.595Z,76851.44
2022-10-01T09:20:05.377Z,76849.47
2022-10-01T09:21:50.222Z,76869.25
2022-10-01T09:23:32.654Z,76839.56
2022-10-01T09:25:14.921Z,76825.72
2022-10-01T09:26:49.257Z,76790.13
2022-10-01T09:28:34.212Z,76794.09
2022-10-01T09:30:25.653Z,76788.16
2022-10-01T09:32:03.561Z,76786.19
2022-10-01T09:33:41.918Z,76766.41
2022-10-01T09:35:38.260Z,76748.59
2022-10-01T09:37:37.008Z,76736.75
2022-10-01T09:39:13.869Z,76762.44
2022-10-01T09:41:01.488Z,76774.31
2022-10-01T09:42:37.931Z,76788.16
2022-10-01T09:44:19.014Z,76778.28
2022-10-01T09:45:53.460Z,76833.66
2022-10-01T09:47:27.303Z,76800.03
2022-10-01T09:49:21.772Z,76802.00
2022-10-01T09:51:00.431Z,76802.00
2022-10-01T09:52:39.694Z,76819.81
2022-10-01T09:54:36.514Z,76803.97
2022-10-01T09:56:17.008Z,76811.88
2022-10-01T09:58:03.962Z,76825.72
2022-10-01T09:59:56.567Z,76813.88
2022-10-01T10:01:46.510Z,76839.56
2022-10-01T10:03:33.095Z,76823.75
2022-10-01T10:05:17.029Z,76821.78
2022-10-01T10:07:02.049Z,76819.81
2022-10-01T10:08:37.700Z,76825.72
2022-10-01T10:10:35.949Z,76813.88
2022-10-01T10:12:27.097Z,76796.06
2022-10-01T10:14:03.782Z,76786.19
2022-10-01T10:15:43.476Z,76794.09
2022-10-01T10:17:17.336Z,76794.09
2022-10-01T10:18:54.467Z,76782.22
2022-10-01T10:20:39.972Z,76809.91
2022-10-01T10:22:28.185Z,76778.28
2022-10-01T10:24:04.120Z,76772.34
2022-10-01T10:25:37.484Z,76778.28
2022-10-01T10:27:27.303Z,76772.34
2022-10-01T10:29:03.187Z,76778.28
2022-10-01T10:30:37.593Z,76744.66
2022-10-01T10:32:27.162Z,76730.81
2022-10-01T10:34:17.409Z,76695.22
2022-10-01T10:36:01.008Z,76687.31
2022-10-01T10:37:38.751Z,76685.34
2022-10-01T10:39:26.233Z,76679.41
2022-10-01T10:40:59.592Z,76673.47
2022-10-01T10:42:33.714Z,76697.19
2022-10-01T10:44:08.844Z,76693.25
2022-10-01T10:45:47.332Z,76726.84
2022-10-01T10:47:22.533Z,76744.66
2022-10-01T10:49:30.613Z,76760.47
2022-10-01T10:51:06.498Z,76762.44
2022-10-01T10:52:43.761Z,76774.31
2022-10-01T10:54:42.090Z,76792.13
2022-10-01T10:56:24.147Z,76790.13
2022-10-01T10:58:19.424Z,76802.00
2022-10-01T11:00:01.261Z,76800.03
2022-10-01T11:01:42.794Z,76798.03
2022-10-01T11:03:20.362Z,76811.88
2022-10-01T11:04:55.156Z,76807.94
2022-10-01T11:06:28.468Z,76805.97
2022-10-01T11:08:05.610Z,76802.00
2022-10-01T11:10:06.608Z,76786.19
2022-10-01T11:11:42.698Z,76784.22
2022-10-01T11:13:39.758Z,76770.38
2022-10-01T11:15:49.542Z,76756.53
2022-10-01T11:17:31.600Z,76742.69
2022-10-01T11:19:08.238Z,76742.69
2022-10-01T11:21:19.564Z,76730.81
2022-10-01T11:23:04.619Z,76726.84
2022-10-01T11:25:06.648Z,76790.13
2022-10-01T11:27:01.950Z,76732.78
2022-10-01T11:29:01.845Z,76750.59
2022-10-01T11:31:07.511Z,76738.72
2022-10-01T11:32:54.720Z,76742.69
2022-10-01T11:34:40.710Z,76756.53
2022-10-01T11:36:27.450Z,76722.91
2022-10-01T11:38:22.511Z,76711.03
2022-10-01T11:40:00.011Z,76713.03
2022-10-01T11:41:39.747Z,76722.91
2022-10-01T11:43:26.984Z,76716.97
2022-10-01T11:45:21.791Z,76724.88
2022-10-01T11:47:11.924Z,76736.75
2022-10-01T11:49:11.595Z,76734.78
2022-10-01T11:50:49.348Z,76802.00
2022-10-01T11:52:53.290Z,76742.69
2022-10-01T11:54:27.719Z,76742.69
2022-10-01T11:56:29.692Z,76738.72
2022-10-01T11:58:49.697Z,76750.59
2022-10-01T12:00:27.179Z,76748.59
2022-10-01T12:02:38.222Z,76752.56
2022-10-01T12:04:19.306Z,76744.66
2022-10-01T12:05:56.412Z,76752.56
2022-10-01T12:07:43.006Z,76748.59
2022-10-01T12:09:32.917Z,76752.56
2022-10-01T12:11:22.081Z,76748.59
2022-10-01T12:13:21.206Z,76754.53
2022-10-01T12:15:21.118Z,76776.28
2022-10-01T12:16:59.633Z,76756.53
2022-10-01T12:18:33.331Z,76746.63
2022-10-01T12:20:22.110Z,76738.72
2022-10-01T12:22:13.458Z,76738.72
2022-10-01T12:23:54.022Z,76770.38
2022-10-01T12:25:38.372Z,76734.78
2022-10-01T12:27:35.850Z,76726.84
2022-10-01T12:29:36.638Z,76720.94
2022-10-01T12:31:37.064Z,76716.97
2022-10-01T12:33:34.804Z,76707.09
2022-10-01T12:35:17.011Z,76713.03
2022-10-01T12:37:10.726Z,76724.88
2022-10-01T12:39:16.341Z,76726.84
2022-10-01T12:41:23.344Z,76734.78
2022-10-01T12:43:30.370Z,76726.84
2022-10-01T12:45:10.798Z,76732.78
2022-10-01T12:47:08.443Z,76734.78
2022-10-01T12:48:54.402Z,76732.78
2022-10-01T12:50:37.369Z,76740.69
2022-10-01T12:52:38.278Z,76756.53
2022-10-01T12:54:31.595Z,76766.41
2022-10-01T12:56:30.507Z,76790.13
2022-10-01T12:58:12.918Z,76770.38
2022-10-01T13:00:09.662Z,76778.28
2022-10-01T13:01:54.651Z,76784.22
2022-10-01T13:03:53.969Z,76788.16
2022-10-01T13:05:51.718Z,76805.97
2022-10-01T13:07:40.570Z,76805.97
2022-10-01T13:09:29.387Z,76809.91
2022-10-01T13:11:11.860Z,76819.81
2022-10-01T13:13:08.065Z,76825.72
2022-10-01T13:14:44.750Z,76841.56
2022-10-01T13:16:28.940Z,76847.50
2022-10-01T13:18:25.523Z,76849.47
2022-10-01T13:20:12.169Z,76859.34
2022-10-01T13:22:09.369Z,76865.28
2022-10-01T13:23:54.999Z,76873.19
2022-10-01T13:25:40.120Z,76877.16
2022-10-01T13:27:49.814Z,76906.81
2022-10-01T13:29:22.869Z,76889.00
2022-10-01T13:31:12.453Z,76892.97
2022-10-01T13:33:05.660Z,76900.88
2022-10-01T13:34:42.175Z,76908.78
2022-10-01T13:36:18.882Z,76920.66
2022-10-01T13:37:52.563Z,76922.63
2022-10-01T13:39:28.934Z,76964.16
2022-10-01T13:41:27.535Z,76924.59
2022-10-01T13:43:19.117Z,76936.47
2022-10-01T13:44:53.923Z,76942.41
2022-10-01T13:46:33.508Z,76942.41
2022-10-01T13:48:18.200Z,76948.34
2022-10-01T13:50:21.031Z,76956.25
2022-10-01T13:51:55.391Z,76952.28
2022-10-01T13:53:30.466Z,76956.25
2022-10-01T13:55:04.034Z,76960.22
2022-10-01T13:56:38.792Z,76946.38
2022-10-01T13:58:31.029Z,76958.22
2022-10-01T14:00:12.973Z,76960.22
2022-10-01T14:01:46.500Z,76960.22
2022-10-01T14:03:40.378Z,76964.16
2022-10-01T14:05:49.888Z,76968.13
2022-10-01T14:07:28.741Z,76970.09
2022-10-01T14:09:29.501Z,76974.06
2022-10-01T14:11:28.596Z,76976.03
2022-10-01T14:13:22.555Z,76983.94
2022-10-01T14:15:20.493Z,77011.63
2022-10-01T14:16:56.449Z,76981.97
2022-10-01T14:18:43.205Z,76981.97
2022-10-01T14:20:27.414Z,76995.81
2022-10-01T14:22:35.509Z,76999.75
2022-10-01T14:24:33.067Z,77005.69
2022-10-01T14:26:35.534Z,77013.59
2022-10-01T14:28:46.000Z,77017.56
2022-10-01T14:30:25.587Z,77053.16
2022-10-01T14:32:29.598Z,77047.22
2022-10-01T14:34:13.703Z,77051.19
2022-10-01T14:36:07.107Z,77061.06
2022-10-01T14:37:41.258Z,77067.00
2022-10-01T14:39:28.650Z,77082.81
2022-10-01T14:41:02.526Z,77086.78
2022-10-01T14:42:35.988Z,77086.78
2022-10-01T14:44:39.641Z,77086.78
2022-10-01T14:46:21.853Z,77098.63
2022-10-01T14:48:03.115Z,77104.56
2022-10-01T14:49:36.491Z,77108.53
2022-10-01T14:51:27.798Z,77108.53
2022-10-01T14:53:01.793Z,77114.47
2022-10-01T14:54:48.320Z,77118.41
2022-10-01T14:56:23.261Z,77161.94
2022-10-01T14:57:59.663Z,77128.31
2022-10-01T14:59:40.185Z,77130.28
2022-10-01T15:01:22.139Z,77130.28
2022-10-01T15:03:16.230Z,77138.19
2022-10-01T15:04:52.702Z,77138.19
2022-10-01T15:06:32.925Z,77130.28
2022-10-01T15:08:36.794Z,77118.41
2022-10-01T15:10:09.971Z,77165.88
2022-10-01T15:11:44.886Z,77110.50
2022-10-01T15:13:32.701Z,77108.53
2022-10-01T15:15:17.810Z,77104.56
2022-10-01T15:16:52.576Z,77106.56
2022-10-01T15:18:27.362Z,77104.56
2022-10-01T15:20:00.915Z,77108.53
2022-10-01T15:21:47.144Z,77114.47
2022-10-01T15:23:22.423Z,77110.50
2022-10-01T15:25:01.661Z,77110.50
2022-10-01T15:26:36.024Z,77116.44
2022-10-01T15:28:28.963Z,77116.44
2022-10-01T15:30:02.542Z,77118.41
2022-10-01T15:31:37.656Z,77130.28
2022-10-01T15:33:28.025Z,77161.94
2022-10-01T15:35:03.759Z,77130.28
2022-10-01T15:36:38.265Z,77130.28
2022-10-01T15:38:11.753Z,77132.25
2022-10-01T15:39:54.451Z,77138.19
2022-10-01T15:41:33.001Z,77132.25
2022-10-01T15:43:09.905Z,77130.28
2022-10-01T15:44:50.405Z,77130.28
2022-10-01T15:46:24.227Z,77122.38
2022-10-01T15:47:58.492Z,77118.41
2022-10-01T15:49:32.178Z,77126.31
2022-10-01T15:51:19.828Z,77120.41
2022-10-01T15:52:58.138Z,77118.41
2022-10-01T15:54:32.188Z,77120.41
2022-10-01T15:56:13.345Z,77118.41
2022-10-01T15:57:47.223Z,77118.41
2022-10-01T15:59:21.891Z,77114.47
2022-10-01T16:01:10.004Z,77118.41
2022-10-01T16:02:45.663Z,77112.47
2022-10-01T16:04:21.890Z,77114.47
2022-10-01T16:05:56.588Z,77116.44
2022-10-01T16:07:34.591Z,77114.47
2022-10-01T16:09:16.950Z,77120.41
2022-10-01T16:11:13.243Z,77118.41
2022-10-01T16:12:46.743Z,77122.38
2022-10-01T16:14:44.917Z,77126.31
2022-10-01T16:16:22.689Z,77128.31
2022-10-01T16:17:56.932Z,77124.34
2022-10-01T16:19:31.594Z,77118.41
2022-10-01T16:21:07.016Z,77118.41
2022-10-01T16:22:40.675Z,77120.41
2022-10-01T16:24:29.771Z,77118.41
2022-10-01T16:26:27.753Z,77122.38
2022-10-01T16:28:04.712Z,77146.09
2022-10-01T16:29:38.583Z,77118.41
2022-10-01T16:31:12.143Z,77116.44
2022-10-01T16:32:45.792Z,77130.28
2022-10-01T16:34:20.816Z,77130.28
2022-10-01T16:36:09.569Z,77193.56
2022-10-01T16:37:43.440Z,77116.44
2022-10-01T16:39:16.626Z,77124.34
2022-10-01T16:40:49.849Z,77114.47
2022-10-01T16:42:24.646Z,77161.94
2022-10-01T16:43:58.537Z,77126.31
2022-10-01T16:45:38.320Z,77130.28
2022-10-01T16:47:12.802Z,77134.25
2022-10-01T16:48:51.879Z,77138.19
2022-10-01T16:50:26.145Z,77134.25
2022-10-01T16:51:59.704Z,77132.25
2022-10-01T16:53:32.696Z,77146.09
2022-10-01T16:55:12.345Z,77146.09
2022-10-01T16:56:45.926Z,77150.06
2022-10-01T16:58:20.276Z,77146.09
2022-10-01T16:59:53.325Z,77150.06
2022-10-01T17:01:27.289Z,77150.06
2022-10-01T17:03:00.895Z,77215.31
2022-10-01T17:04:34.539Z,77154.00
2022-10-01T17:06:07.929Z,77150.06
2022-10-01T17:07:41.189Z,77146.09
2022-10-01T17:09:14.463Z,77146.09
2022-10-01T17:11:00.816Z,77181.69
2022-10-01T17:12:33.838Z,77146.09
2022-10-01T17:14:09.708Z,77150.06
2022-10-01T17:15:44.489Z,77154.00
2022-10-01T17:17:19.536Z,77150.06
2022-10-01T17:18:56.270Z,77154.00
2022-10-01T17:20:30.628Z,77154.00
2022-10-01T17:22:04.155Z,77152.03
2022-10-01T17:23:38.564Z,77154.00
2022-10-01T17:25:16.889Z,77154.00
2022-10-01T17:26:50.450Z,77167.84
2022-10-01T17:28:24.793Z,77189.59
2022-10-01T17:29:57.936Z,77165.88
2022-10-01T17:31:30.813Z,77165.88
2022-10-01T17:33:04.535Z,77193.56
2022-10-01T17:34:38.267Z,77167.84
2022-10-01T17:36:12.032Z,77159.94
2022-10-01T17:37:45.673Z,77177.75
2022-10-01T17:39:19.080Z,77157.97
2022-10-01T17:40:56.319Z,77159.94
2022-10-01T17:42:33.085Z,77163.91
2022-10-01T17:44:06.287Z,77161.94
2022-10-01T17:45:39.851Z,77157.97
2022-10-01T17:47:13.013Z,77163.91
2022-10-01T17:48:49.593Z,77189.59
2022-10-01T17:50:24.260Z,77156.00
2022-10-01T17:51:57.801Z,77159.94
2022-10-01T17:53:39.660Z,77177.75
2022-10-01T17:55:16.129Z,77161.94
2022-10-01T17:56:53.594Z,77154.00
2022-10-01T17:58:27.471Z,77161.94
2022-10-01T18:00:01.507Z,77154.00
2022-10-01T18:01:45.624Z,77156.00
2022-10-01T18:03:20.046Z,77154.00
2022-10-01T18:04:56.793Z,77154.00
2022-10-01T18:06:30.794Z,77142.16
2022-10-01T18:08:04.291Z,77138.19
2022-10-01T18:09:37.903Z,77142.16
2022-10-01T18:11:13.273Z,77138.19
2022-10-01T18:12:46.623Z,77169.84
2022-10-01T18:14:19.908Z,77144.13
2022-10-01T18:16:00.990Z,77142.16
2022-10-01T18:17:36.609Z,77142.16
2022-10-01T18:21:09.245Z,77140.16
2022-10-01T18:22:42.716Z,77138.19
2022-10-01T18:24:17.243Z,77132.25
2022-10-01T18:25:50.612Z,77128.31
2022-10-01T18:27:24.592Z,77126.31
2022-10-01T18:28:58.475Z,77128.31
2022-10-01T18:30:32.362Z,77128.31
2022-10-01T18:32:27.780Z,77128.31
2022-10-01T18:34:06.715Z,77124.34
2022-10-01T18:35:44.366Z,77116.44
2022-10-01T18:37:47.245Z,77114.47
2022-10-01T18:39:49.813Z,77120.41
2022-10-01T18:41:34.049Z,77108.53
2022-10-01T18:43:18.378Z,77106.56
2022-10-01T18:44:56.203Z,77096.66
2022-10-01T18:46:50.861Z,77100.63
2022-10-01T18:48:32.828Z,77094.69
2022-10-01T18:50:15.056Z,77088.75
2022-10-01T18:52:06.623Z,77086.78
2022-10-01T18:54:06.629Z,77086.78
2022-10-01T18:55:49.395Z,77082.81
2022-10-01T18:57:43.545Z,77074.91
2022-10-01T18:59:19.253Z,77068.97
2022-10-01T19:01:22.127Z,77068.97
2022-10-01T19:03:14.708Z,77063.03
2022-10-01T19:04:48.308Z,77063.03
2022-10-01T19:06:44.557Z,77055.13
2022-10-01T19:08:49.435Z,77059.09
2022-10-01T19:10:38.224Z,77059.09
2022-10-01T19:12:31.376Z,77065.03
2022-10-01T19:14:25.710Z,77059.09
2022-10-01T19:16:10.627Z,77067.00
2022-10-01T19:17:50.454Z,77070.94
2022-10-01T19:19:42.691Z,77074.91
2022-10-01T19:21:35.411Z,77086.78
2022-10-01T19:23:36.600Z,77096.66
2022-10-01T19:25:16.262Z,77094.69
2022-10-01T19:27:21.205Z,77080.84
2022-10-01T19:29:12.702Z,77086.78
2022-10-01T19:30:52.214Z,77072.94
2022-10-01T19:32:34.171Z,77072.94
2022-10-01T19:34:22.667Z,77076.88
2022-10-01T19:36:01.194Z,77070.94
2022-10-01T19:37:34.497Z,77070.94
2022-10-01T19:39:24.063Z,77080.84
2022-10-01T19:41:09.014Z,77082.81
2022-10-01T19:42:50.441Z,77086.78